sensor_id;sensor_type;location;lat;lon;timestamp;temperature;humidity
6106;DHT22;3083;51.508;7.966;2024-02-28T00:02:00;-0.40;99.90
6106;DHT22;3083;51.508;7.966;2024-02-28T00:04:27;-0.40;99.90
6106;DHT22;3083;51.508;7.966;2024-02-28T00:06:56;-0.40;99.90
6106;DHT22;3083;51.508;7.966;2024-02-28T00:09:23;-0.50;99.90
6106;DHT22;3083;51.508;7.966;2024-02-28T00:11:50;-0.60;99.90
6106;DHT22;3083;51.508;7.966;2024-02-28T00:14:18;-0.70;99.90
6106;DHT22;3083;51.508;7.966;2024-02-28T00:16:46;-0.70;99.90
6106;DHT22;3083;51.508;7.966;2024-02-28T00:19:13;-0.70;99.90
6106;DHT22;3083;51.508;7.966;2024-02-28T00:21:41;-0.80;99.90
6106;DHT22;3083;51.508;7.966;2024-02-28T00:24:09;-0.70;99.90
6106;DHT22;3083;51.508;7.966;2024-02-28T00:26:36;-0.70;99.90
6106;DHT22;3083;51.508;7.966;2024-02-28T00:29:03;-0.60;99.90
6106;DHT22;3083;51.508;7.966;2024-02-28T00:31:30;-0.50;99.90
6106;DHT22;3083;51.508;7.966;2024-02-28T00:33:56;-0.40;99.90
6106;DHT22;3083;51.508;7.966;2024-02-28T00:36:23;-0.30;99.90
6106;DHT22;3083;51.508;7.966;2024-02-28T00:38:50;-0.20;99.90
6106;DHT22;3083;51.508;7.966;2024-02-28T00:41:19;-0.10;99.90
6106;DHT22;3083;51.508;7.966;2024-02-28T00:43:45;-0.10;99.90
6106;DHT22;3083;51.508;7.966;2024-02-28T00:46:12;-0.10;99.90
6106;DHT22;3083;51.508;7.966;2024-02-28T00:48:39;-0.10;99.90
6106;DHT22;3083;51.508;7.966;2024-02-28T00:51:06;0.00;99.90
6106;DHT22;3083;51.508;7.966;2024-02-28T00:53:34;0.10;99.90
6106;DHT22;3083;51.508;7.966;2024-02-28T00:56:01;0.10;99.90
6106;DHT22;3083;51.508;7.966;2024-02-28T00:58:29;0.20;99.90
6106;DHT22;3083;51.508;7.966;2024-02-28T01:00:56;0.20;99.90
6106;DHT22;3083;51.508;7.966;2024-02-28T01:03:23;0.30;99.90
6106;DHT22;3083;51.508;7.966;2024-02-28T01:05:50;0.30;99.90
6106;DHT22;3083;51.508;7.966;2024-02-28T01:08:17;0.40;99.90
6106;DHT22;3083;51.508;7.966;2024-02-28T01:10:44;0.40;99.90
6106;DHT22;3083;51.508;7.966;2024-02-28T01:13:11;0.40;99.90
6106;DHT22;3083;51.508;7.966;2024-02-28T01:15:41;0.40;99.90
6106;DHT22;3083;51.508;7.966;2024-02-28T01:18:08;0.40;99.90
6106;DHT22;3083;51.508;7.966;2024-02-28T01:20:35;0.40;99.90
6106;DHT22;3083;51.508;7.966;2024-02-28T01:23:02;0.40;99.90
6106;DHT22;3083;51.508;7.966;2024-02-28T01:25:29;0.40;99.90
6106;DHT22;3083;51.508;7.966;2024-02-28T01:27:56;0.40;99.90
6106;DHT22;3083;51.508;7.966;2024-02-28T01:30:23;0.40;99.90
6106;DHT22;3083;51.508;7.966;2024-02-28T01:32:51;0.40;99.90
6106;DHT22;3083;51.508;7.966;2024-02-28T01:35:18;0.40;99.90
6106;DHT22;3083;51.508;7.966;2024-02-28T01:37:45;0.40;99.90
6106;DHT22;3083;51.508;7.966;2024-02-28T01:40:13;0.40;99.90
6106;DHT22;3083;51.508;7.966;2024-02-28T01:42:40;0.40;99.90
6106;DHT22;3083;51.508;7.966;2024-02-28T01:45:07;0.40;99.90
6106;DHT22;3083;51.508;7.966;2024-02-28T01:47:36;0.40;99.90
6106;DHT22;3083;51.508;7.966;2024-02-28T01:50:05;0.40;99.90
6106;DHT22;3083;51.508;7.966;2024-02-28T01:52:32;0.40;99.90
6106;DHT22;3083;51.508;7.966;2024-02-28T01:55:00;0.40;99.90
6106;DHT22;3083;51.508;7.966;2024-02-28T01:57:27;0.40;99.90
6106;DHT22;3083;51.508;7.966;2024-02-28T01:59:54;0.40;99.90
6106;DHT22;3083;51.508;7.966;2024-02-28T02:02:21;0.40;99.90
6106;DHT22;3083;51.508;7.966;2024-02-28T02:04:48;0.40;99.90
6106;DHT22;3083;51.508;7.966;2024-02-28T02:07:19;0.40;99.90
6106;DHT22;3083;51.508;7.966;2024-02-28T02:09:46;0.40;99.90
6106;DHT22;3083;51.508;7.966;2024-02-28T02:12:13;0.40;99.90
6106;DHT22;3083;51.508;7.966;2024-02-28T02:14:40;0.40;99.90
6106;DHT22;3083;51.508;7.966;2024-02-28T02:17:07;0.40;99.90
6106;DHT22;3083;51.508;7.966;2024-02-28T02:19:34;0.40;99.90
6106;DHT22;3083;51.508;7.966;2024-02-28T02:22:04;0.50;99.90
6106;DHT22;3083;51.508;7.966;2024-02-28T02:24:33;0.40;99.90
6106;DHT22;3083;51.508;7.966;2024-02-28T02:27:01;0.40;99.90
6106;DHT22;3083;51.508;7.966;2024-02-28T02:29:30;0.40;99.90
6106;DHT22;3083;51.508;7.966;2024-02-28T02:32:00;0.40;99.90
6106;DHT22;3083;51.508;7.966;2024-02-28T02:34:26;0.40;99.90
6106;DHT22;3083;51.508;7.966;2024-02-28T02:36:56;0.40;99.90
6106;DHT22;3083;51.508;7.966;2024-02-28T02:39:23;0.40;99.90
6106;DHT22;3083;51.508;7.966;2024-02-28T02:41:51;0.40;99.90
6106;DHT22;3083;51.508;7.966;2024-02-28T02:44:18;0.40;99.90
6106;DHT22;3083;51.508;7.966;2024-02-28T02:46:45;0.40;99.90
6106;DHT22;3083;51.508;7.966;2024-02-28T02:49:13;0.40;99.90
6106;DHT22;3083;51.508;7.966;2024-02-28T02:51:40;0.40;99.90
6106;DHT22;3083;51.508;7.966;2024-02-28T02:54:09;0.40;99.90
6106;DHT22;3083;51.508;7.966;2024-02-28T02:56:36;0.40;99.90
6106;DHT22;3083;51.508;7.966;2024-02-28T02:59:05;0.40;99.90
6106;DHT22;3083;51.508;7.966;2024-02-28T03:01:31;0.30;99.90
6106;DHT22;3083;51.508;7.966;2024-02-28T03:03:58;0.30;99.90
6106;DHT22;3083;51.508;7.966;2024-02-28T03:06:25;0.30;99.90
6106;DHT22;3083;51.508;7.966;2024-02-28T03:08:53;0.20;99.90
6106;DHT22;3083;51.508;7.966;2024-02-28T03:11:19;0.20;99.90
6106;DHT22;3083;51.508;7.966;2024-02-28T03:13:46;0.20;99.90
6106;DHT22;3083;51.508;7.966;2024-02-28T03:16:15;0.20;99.90
6106;DHT22;3083;51.508;7.966;2024-02-28T03:18:42;0.20;99.90
6106;DHT22;3083;51.508;7.966;2024-02-28T03:21:08;0.20;99.90
6106;DHT22;3083;51.508;7.966;2024-02-28T03:23:35;0.20;99.90
6106;DHT22;3083;51.508;7.966;2024-02-28T03:26:03;0.20;99.90
6106;DHT22;3083;51.508;7.966;2024-02-28T03:28:30;0.20;99.90
6106;DHT22;3083;51.508;7.966;2024-02-28T03:30:57;0.20;99.90
6106;DHT22;3083;51.508;7.966;2024-02-28T03:33:25;0.20;99.90
6106;DHT22;3083;51.508;7.966;2024-02-28T03:35:52;0.20;99.90
6106;DHT22;3083;51.508;7.966;2024-02-28T03:38:19;0.20;99.90
6106;DHT22;3083;51.508;7.966;2024-02-28T03:40:46;0.20;99.90
6106;DHT22;3083;51.508;7.966;2024-02-28T03:43:13;0.20;99.90
6106;DHT22;3083;51.508;7.966;2024-02-28T03:45:40;0.20;99.90
6106;DHT22;3083;51.508;7.966;2024-02-28T03:48:07;0.30;99.90
6106;DHT22;3083;51.508;7.966;2024-02-28T03:50:35;0.30;99.90
6106;DHT22;3083;51.508;7.966;2024-02-28T03:53:03;0.30;99.90
6106;DHT22;3083;51.508;7.966;2024-02-28T03:55:30;0.30;99.90
6106;DHT22;3083;51.508;7.966;2024-02-28T03:57:57;0.30;99.90
6106;DHT22;3083;51.508;7.966;2024-02-28T04:00:24;0.20;99.90
6106;DHT22;3083;51.508;7.966;2024-02-28T04:02:52;0.20;99.90
6106;DHT22;3083;51.508;7.966;2024-02-28T04:05:19;0.20;99.90
6106;DHT22;3083;51.508;7.966;2024-02-28T04:07:47;0.10;99.90
6106;DHT22;3083;51.508;7.966;2024-02-28T04:10:14;0.20;99.90
6106;DHT22;3083;51.508;7.966;2024-02-28T04:12:42;0.10;99.90
6106;DHT22;3083;51.508;7.966;2024-02-28T04:15:10;0.10;99.90
6106;DHT22;3083;51.508;7.966;2024-02-28T04:17:38;0.10;99.90
6106;DHT22;3083;51.508;7.966;2024-02-28T04:20:08;0.00;99.90
6106;DHT22;3083;51.508;7.966;2024-02-28T04:22:35;0.00;99.90
6106;DHT22;3083;51.508;7.966;2024-02-28T04:25:04;0.00;99.90
6106;DHT22;3083;51.508;7.966;2024-02-28T04:27:31;0.00;99.90
6106;DHT22;3083;51.508;7.966;2024-02-28T04:29:58;0.00;99.90
6106;DHT22;3083;51.508;7.966;2024-02-28T04:32:25;0.00;99.90
6106;DHT22;3083;51.508;7.966;2024-02-28T04:34:52;0.00;99.90
6106;DHT22;3083;51.508;7.966;2024-02-28T04:37:19;0.00;99.90
6106;DHT22;3083;51.508;7.966;2024-02-28T04:39:46;0.00;99.90
6106;DHT22;3083;51.508;7.966;2024-02-28T04:42:15;-0.10;99.90
6106;DHT22;3083;51.508;7.966;2024-02-28T04:44:42;0.00;99.90
6106;DHT22;3083;51.508;7.966;2024-02-28T04:47:09;-0.10;99.90
6106;DHT22;3083;51.508;7.966;2024-02-28T04:49:37;-0.10;99.90
6106;DHT22;3083;51.508;7.966;2024-02-28T04:52:04;-0.10;99.90
6106;DHT22;3083;51.508;7.966;2024-02-28T04:54:32;-0.10;99.90
6106;DHT22;3083;51.508;7.966;2024-02-28T04:56:59;0.00;99.90
6106;DHT22;3083;51.508;7.966;2024-02-28T04:59:27;0.00;99.90
6106;DHT22;3083;51.508;7.966;2024-02-28T05:01:54;0.00;99.90
6106;DHT22;3083;51.508;7.966;2024-02-28T05:04:21;-0.10;99.90
6106;DHT22;3083;51.508;7.966;2024-02-28T05:06:49;-0.10;99.90
6106;DHT22;3083;51.508;7.966;2024-02-28T05:09:16;-0.10;99.90
6106;DHT22;3083;51.508;7.966;2024-02-28T05:11:41;-0.10;99.90
6106;DHT22;3083;51.508;7.966;2024-02-28T05:14:09;-0.10;99.90
6106;DHT22;3083;51.508;7.966;2024-02-28T05:16:38;-0.10;99.90
6106;DHT22;3083;51.508;7.966;2024-02-28T05:19:05;-0.20;99.90
6106;DHT22;3083;51.508;7.966;2024-02-28T05:21:39;-0.10;99.90
6106;DHT22;3083;51.508;7.966;2024-02-28T05:24:07;-0.20;99.90
6106;DHT22;3083;51.508;7.966;2024-02-28T05:26:34;-0.10;99.90
6106;DHT22;3083;51.508;7.966;2024-02-28T05:29:01;-0.10;99.90
6106;DHT22;3083;51.508;7.966;2024-02-28T05:31:29;-0.10;99.90
6106;DHT22;3083;51.508;7.966;2024-02-28T05:33:59;-0.10;99.90
6106;DHT22;3083;51.508;7.966;2024-02-28T05:36:27;-0.10;99.90
6106;DHT22;3083;51.508;7.966;2024-02-28T05:38:55;-0.10;99.90
6106;DHT22;3083;51.508;7.966;2024-02-28T05:41:23;-0.10;99.90
6106;DHT22;3083;51.508;7.966;2024-02-28T05:43:51;-0.10;99.90
6106;DHT22;3083;51.508;7.966;2024-02-28T05:46:18;-0.10;99.90
6106;DHT22;3083;51.508;7.966;2024-02-28T05:48:46;-0.10;99.90
6106;DHT22;3083;51.508;7.966;2024-02-28T05:51:14;-0.10;99.90
6106;DHT22;3083;51.508;7.966;2024-02-28T05:53:42;-0.20;99.90
6106;DHT22;3083;51.508;7.966;2024-02-28T05:56:09;-0.20;99.90
6106;DHT22;3083;51.508;7.966;2024-02-28T05:58:40;-0.20;99.90
6106;DHT22;3083;51.508;7.966;2024-02-28T06:01:08;-0.20;99.90
6106;DHT22;3083;51.508;7.966;2024-02-28T06:03:35;-0.20;99.90
6106;DHT22;3083;51.508;7.966;2024-02-28T06:06:03;-0.20;99.90
6106;DHT22;3083;51.508;7.966;2024-02-28T06:08:33;-0.10;99.90
6106;DHT22;3083;51.508;7.966;2024-02-28T06:11:00;-0.10;99.90
6106;DHT22;3083;51.508;7.966;2024-02-28T06:13:27;-0.10;99.90
6106;DHT22;3083;51.508;7.966;2024-02-28T06:15:54;-0.10;99.90
6106;DHT22;3083;51.508;7.966;2024-02-28T06:18:21;-0.10;99.90
6106;DHT22;3083;51.508;7.966;2024-02-28T06:20:52;-0.10;99.90
6106;DHT22;3083;51.508;7.966;2024-02-28T06:23:19;-0.10;99.90
6106;DHT22;3083;51.508;7.966;2024-02-28T06:25:47;-0.10;99.90
6106;DHT22;3083;51.508;7.966;2024-02-28T06:28:14;-0.20;99.90
6106;DHT22;3083;51.508;7.966;2024-02-28T06:30:43;-0.20;99.90
6106;DHT22;3083;51.508;7.966;2024-02-28T06:33:10;-0.20;99.90
6106;DHT22;3083;51.508;7.966;2024-02-28T06:35:37;-0.20;99.90
6106;DHT22;3083;51.508;7.966;2024-02-28T06:38:04;-0.30;99.90
6106;DHT22;3083;51.508;7.966;2024-02-28T06:40:31;-0.30;99.90
6106;DHT22;3083;51.508;7.966;2024-02-28T06:42:59;-0.30;99.90
6106;DHT22;3083;51.508;7.966;2024-02-28T06:45:26;-0.20;99.90
6106;DHT22;3083;51.508;7.966;2024-02-28T06:47:53;-0.20;99.90
6106;DHT22;3083;51.508;7.966;2024-02-28T06:50:20;-0.20;99.90
6106;DHT22;3083;51.508;7.966;2024-02-28T06:52:47;-0.20;99.90
6106;DHT22;3083;51.508;7.966;2024-02-28T06:55:14;-0.20;99.90
6106;DHT22;3083;51.508;7.966;2024-02-28T06:57:42;-0.20;99.90
6106;DHT22;3083;51.508;7.966;2024-02-28T07:00:11;-0.30;99.90
6106;DHT22;3083;51.508;7.966;2024-02-28T07:02:40;-0.30;99.90
6106;DHT22;3083;51.508;7.966;2024-02-28T07:05:07;-0.30;99.90
6106;DHT22;3083;51.508;7.966;2024-02-28T07:07:34;-0.30;99.90
6106;DHT22;3083;51.508;7.966;2024-02-28T07:10:02;-0.20;99.90
6106;DHT22;3083;51.508;7.966;2024-02-28T07:12:32;-0.20;99.90
6106;DHT22;3083;51.508;7.966;2024-02-28T07:14:59;-0.10;99.90
6106;DHT22;3083;51.508;7.966;2024-02-28T07:17:27;-0.10;99.90
6106;DHT22;3083;51.508;7.966;2024-02-28T07:19:54;-0.10;99.90
6106;DHT22;3083;51.508;7.966;2024-02-28T07:22:21;0.00;99.90
6106;DHT22;3083;51.508;7.966;2024-02-28T07:24:47;0.10;99.90
6106;DHT22;3083;51.508;7.966;2024-02-28T07:27:14;0.20;99.90
6106;DHT22;3083;51.508;7.966;2024-02-28T07:29:41;0.20;99.90
6106;DHT22;3083;51.508;7.966;2024-02-28T07:32:09;0.30;99.90
6106;DHT22;3083;51.508;7.966;2024-02-28T07:34:38;0.30;99.90
6106;DHT22;3083;51.508;7.966;2024-02-28T07:37:05;0.40;99.90
6106;DHT22;3083;51.508;7.966;2024-02-28T07:39:32;0.50;99.90
6106;DHT22;3083;51.508;7.966;2024-02-28T07:41:59;0.50;99.90
6106;DHT22;3083;51.508;7.966;2024-02-28T07:44:26;0.60;99.90
6106;DHT22;3083;51.508;7.966;2024-02-28T07:46:56;0.80;99.90
6106;DHT22;3083;51.508;7.966;2024-02-28T07:49:23;0.80;99.90
6106;DHT22;3083;51.508;7.966;2024-02-28T07:51:51;1.00;99.90
6106;DHT22;3083;51.508;7.966;2024-02-28T07:54:18;1.10;99.90
6106;DHT22;3083;51.508;7.966;2024-02-28T07:56:45;1.30;99.90
6106;DHT22;3083;51.508;7.966;2024-02-28T07:59:12;1.40;99.90
6106;DHT22;3083;51.508;7.966;2024-02-28T08:01:39;1.50;99.90
6106;DHT22;3083;51.508;7.966;2024-02-28T08:04:06;1.70;99.90
6106;DHT22;3083;51.508;7.966;2024-02-28T08:06:32;1.80;99.90
6106;DHT22;3083;51.508;7.966;2024-02-28T08:09:01;1.90;99.90
6106;DHT22;3083;51.508;7.966;2024-02-28T08:11:29;2.10;99.90
6106;DHT22;3083;51.508;7.966;2024-02-28T08:13:56;2.10;99.90
6106;DHT22;3083;51.508;7.966;2024-02-28T08:16:23;2.30;99.90
6106;DHT22;3083;51.508;7.966;2024-02-28T08:18:50;2.50;99.90
6106;DHT22;3083;51.508;7.966;2024-02-28T08:21:17;2.60;99.90
6106;DHT22;3083;51.508;7.966;2024-02-28T08:23:45;2.70;99.90
6106;DHT22;3083;51.508;7.966;2024-02-28T08:26:14;2.90;99.90
6106;DHT22;3083;51.508;7.966;2024-02-28T08:28:41;3.10;99.90
6106;DHT22;3083;51.508;7.966;2024-02-28T08:31:08;3.20;99.90
6106;DHT22;3083;51.508;7.966;2024-02-28T08:33:35;3.40;99.90
6106;DHT22;3083;51.508;7.966;2024-02-28T08:36:02;3.50;99.90
6106;DHT22;3083;51.508;7.966;2024-02-28T08:38:29;3.70;99.90
6106;DHT22;3083;51.508;7.966;2024-02-28T08:40:56;3.90;99.90
6106;DHT22;3083;51.508;7.966;2024-02-28T08:43:24;4.00;99.90
6106;DHT22;3083;51.508;7.966;2024-02-28T08:45:51;4.20;99.90
6106;DHT22;3083;51.508;7.966;2024-02-28T08:48:19;4.20;99.90
6106;DHT22;3083;51.508;7.966;2024-02-28T08:50:46;4.30;99.90
6106;DHT22;3083;51.508;7.966;2024-02-28T08:53:13;4.40;99.90
6106;DHT22;3083;51.508;7.966;2024-02-28T08:55:40;4.50;99.90
6106;DHT22;3083;51.508;7.966;2024-02-28T08:58:07;4.60;99.90
6106;DHT22;3083;51.508;7.966;2024-02-28T09:00:35;4.70;99.90
6106;DHT22;3083;51.508;7.966;2024-02-28T09:03:04;4.80;99.90
6106;DHT22;3083;51.508;7.966;2024-02-28T09:05:31;5.00;99.90
6106;DHT22;3083;51.508;7.966;2024-02-28T09:07:58;5.10;99.90
6106;DHT22;3083;51.508;7.966;2024-02-28T09:10:24;5.20;99.90
6106;DHT22;3083;51.508;7.966;2024-02-28T09:12:52;5.30;99.90
6106;DHT22;3083;51.508;7.966;2024-02-28T09:15:19;5.40;99.90
6106;DHT22;3083;51.508;7.966;2024-02-28T09:17:48;5.50;99.90
6106;DHT22;3083;51.508;7.966;2024-02-28T09:20:15;5.60;99.90
6106;DHT22;3083;51.508;7.966;2024-02-28T09:22:42;5.70;99.90
6106;DHT22;3083;51.508;7.966;2024-02-28T09:25:10;5.80;99.90
6106;DHT22;3083;51.508;7.966;2024-02-28T09:27:37;5.90;99.90
6106;DHT22;3083;51.508;7.966;2024-02-28T09:30:05;6.00;99.90
6106;DHT22;3083;51.508;7.966;2024-02-28T09:32:32;6.10;99.90
6106;DHT22;3083;51.508;7.966;2024-02-28T09:35:00;6.10;99.90
6106;DHT22;3083;51.508;7.966;2024-02-28T09:37:27;6.10;99.90
6106;DHT22;3083;51.508;7.966;2024-02-28T09:39:54;6.20;99.90
6106;DHT22;3083;51.508;7.966;2024-02-28T09:42:21;6.30;99.90
6106;DHT22;3083;51.508;7.966;2024-02-28T09:44:49;6.40;99.90
6106;DHT22;3083;51.508;7.966;2024-02-28T09:47:16;6.60;99.90
6106;DHT22;3083;51.508;7.966;2024-02-28T09:49:45;6.70;99.90
6106;DHT22;3083;51.508;7.966;2024-02-28T09:52:17;6.90;99.90
6106;DHT22;3083;51.508;7.966;2024-02-28T09:54:44;6.90;99.90
6106;DHT22;3083;51.508;7.966;2024-02-28T09:57:11;7.00;99.90
6106;DHT22;3083;51.508;7.966;2024-02-28T09:59:39;7.00;99.90
6106;DHT22;3083;51.508;7.966;2024-02-28T10:02:10;6.90;99.90
6106;DHT22;3083;51.508;7.966;2024-02-28T10:04:37;6.90;99.90
6106;DHT22;3083;51.508;7.966;2024-02-28T10:07:10;6.90;99.90
6106;DHT22;3083;51.508;7.966;2024-02-28T10:09:40;6.80;99.90
6106;DHT22;3083;51.508;7.966;2024-02-28T10:12:07;6.70;99.90
6106;DHT22;3083;51.508;7.966;2024-02-28T10:14:34;6.70;99.90
6106;DHT22;3083;51.508;7.966;2024-02-28T10:17:01;6.70;99.90
6106;DHT22;3083;51.508;7.966;2024-02-28T10:19:28;6.80;99.90
6106;DHT22;3083;51.508;7.966;2024-02-28T10:21:55;6.70;99.90
6106;DHT22;3083;51.508;7.966;2024-02-28T10:24:24;6.80;99.90
6106;DHT22;3083;51.508;7.966;2024-02-28T10:26:52;6.90;99.90
6106;DHT22;3083;51.508;7.966;2024-02-28T10:29:22;6.90;99.90
6106;DHT22;3083;51.508;7.966;2024-02-28T10:31:50;6.90;99.90
6106;DHT22;3083;51.508;7.966;2024-02-28T10:34:17;6.90;99.90
6106;DHT22;3083;51.508;7.966;2024-02-28T10:36:44;6.90;99.90
6106;DHT22;3083;51.508;7.966;2024-02-28T10:39:12;7.10;99.90
6106;DHT22;3083;51.508;7.966;2024-02-28T10:41:40;7.30;99.90
6106;DHT22;3083;51.508;7.966;2024-02-28T10:44:09;7.50;99.90
6106;DHT22;3083;51.508;7.966;2024-02-28T10:46:38;7.60;99.90
6106;DHT22;3083;51.508;7.966;2024-02-28T10:49:05;7.80;99.90
6106;DHT22;3083;51.508;7.966;2024-02-28T10:51:35;8.00;99.90
6106;DHT22;3083;51.508;7.966;2024-02-28T10:54:07;8.00;99.90
6106;DHT22;3083;51.508;7.966;2024-02-28T10:56:37;8.00;99.90
6106;DHT22;3083;51.508;7.966;2024-02-28T10:59:06;8.00;99.90
6106;DHT22;3083;51.508;7.966;2024-02-28T11:01:35;8.10;99.90
6106;DHT22;3083;51.508;7.966;2024-02-28T11:04:03;8.20;99.90
6106;DHT22;3083;51.508;7.966;2024-02-28T11:06:30;8.30;99.90
6106;DHT22;3083;51.508;7.966;2024-02-28T11:08:59;8.40;99.90
6106;DHT22;3083;51.508;7.966;2024-02-28T11:11:30;8.50;99.90
6106;DHT22;3083;51.508;7.966;2024-02-28T11:13:58;8.70;99.90
6106;DHT22;3083;51.508;7.966;2024-02-28T11:16:27;8.80;99.90
6106;DHT22;3083;51.508;7.966;2024-02-28T11:18:55;8.90;99.90
6106;DHT22;3083;51.508;7.966;2024-02-28T11:21:26;8.90;99.90
6106;DHT22;3083;51.508;7.966;2024-02-28T11:23:57;9.00;99.90
6106;DHT22;3083;51.508;7.966;2024-02-28T11:26:24;9.00;99.90
6106;DHT22;3083;51.508;7.966;2024-02-28T11:28:53;9.00;99.90
6106;DHT22;3083;51.508;7.966;2024-02-28T11:31:20;9.00;99.90
6106;DHT22;3083;51.508;7.966;2024-02-28T11:33:47;9.20;99.90
6106;DHT22;3083;51.508;7.966;2024-02-28T11:36:15;9.30;99.90
6106;DHT22;3083;51.508;7.966;2024-02-28T11:38:44;9.40;99.90
6106;DHT22;3083;51.508;7.966;2024-02-28T11:41:11;9.40;99.90
6106;DHT22;3083;51.508;7.966;2024-02-28T11:43:37;9.30;99.90
6106;DHT22;3083;51.508;7.966;2024-02-28T11:46:08;9.30;99.90
6106;DHT22;3083;51.508;7.966;2024-02-28T11:48:35;9.40;99.90
6106;DHT22;3083;51.508;7.966;2024-02-28T11:51:02;9.50;99.90
6106;DHT22;3083;51.508;7.966;2024-02-28T11:53:30;9.40;99.90
6106;DHT22;3083;51.508;7.966;2024-02-28T11:55:57;9.50;99.90
6106;DHT22;3083;51.508;7.966;2024-02-28T11:58:25;9.60;99.90
6106;DHT22;3083;51.508;7.966;2024-02-28T12:00:52;9.70;99.90
6106;DHT22;3083;51.508;7.966;2024-02-28T12:03:23;9.60;99.90
6106;DHT22;3083;51.508;7.966;2024-02-28T12:05:51;9.60;99.90
6106;DHT22;3083;51.508;7.966;2024-02-28T12:08:18;9.60;99.90
6106;DHT22;3083;51.508;7.966;2024-02-28T12:10:47;9.50;99.90
6106;DHT22;3083;51.508;7.966;2024-02-28T12:13:17;9.60;99.90
6106;DHT22;3083;51.508;7.966;2024-02-28T12:15:45;9.60;99.90
6106;DHT22;3083;51.508;7.966;2024-02-28T12:18:15;9.70;99.90
6106;DHT22;3083;51.508;7.966;2024-02-28T12:20:42;9.80;99.90
6106;DHT22;3083;51.508;7.966;2024-02-28T12:23:09;9.90;99.90
6106;DHT22;3083;51.508;7.966;2024-02-28T12:25:36;9.90;99.90
6106;DHT22;3083;51.508;7.966;2024-02-28T12:28:05;9.90;99.90
6106;DHT22;3083;51.508;7.966;2024-02-28T12:30:40;9.90;99.90
6106;DHT22;3083;51.508;7.966;2024-02-28T12:33:07;9.90;99.90
6106;DHT22;3083;51.508;7.966;2024-02-28T12:35:34;9.90;99.90
6106;DHT22;3083;51.508;7.966;2024-02-28T12:38:02;10.00;99.90
6106;DHT22;3083;51.508;7.966;2024-02-28T12:40:29;10.10;99.90
6106;DHT22;3083;51.508;7.966;2024-02-28T12:42:56;10.20;99.90
6106;DHT22;3083;51.508;7.966;2024-02-28T12:45:24;10.20;99.90
6106;DHT22;3083;51.508;7.966;2024-02-28T12:47:51;10.20;99.90
6106;DHT22;3083;51.508;7.966;2024-02-28T12:50:19;10.30;99.90
6106;DHT22;3083;51.508;7.966;2024-02-28T12:52:47;10.30;99.90
6106;DHT22;3083;51.508;7.966;2024-02-28T12:55:19;10.30;99.90
6106;DHT22;3083;51.508;7.966;2024-02-28T12:57:46;10.20;99.90
6106;DHT22;3083;51.508;7.966;2024-02-28T13:00:13;10.20;99.90
6106;DHT22;3083;51.508;7.966;2024-02-28T13:02:41;10.20;99.90
6106;DHT22;3083;51.508;7.966;2024-02-28T13:05:09;10.20;99.90
6106;DHT22;3083;51.508;7.966;2024-02-28T13:07:36;10.20;99.90
6106;DHT22;3083;51.508;7.966;2024-02-28T13:10:04;10.20;99.90
6106;DHT22;3083;51.508;7.966;2024-02-28T13:12:31;10.20;99.90
6106;DHT22;3083;51.508;7.966;2024-02-28T13:14:59;10.30;99.90
6106;DHT22;3083;51.508;7.966;2024-02-28T13:17:25;10.30;99.90
6106;DHT22;3083;51.508;7.966;2024-02-28T13:19:54;10.30;99.90
6106;DHT22;3083;51.508;7.966;2024-02-28T13:22:21;10.30;99.90
6106;DHT22;3083;51.508;7.966;2024-02-28T13:24:48;10.40;99.90
6106;DHT22;3083;51.508;7.966;2024-02-28T13:27:15;10.50;99.90
6106;DHT22;3083;51.508;7.966;2024-02-28T13:29:42;10.60;99.90
6106;DHT22;3083;51.508;7.966;2024-02-28T13:32:09;10.70;99.90
6106;DHT22;3083;51.508;7.966;2024-02-28T13:34:35;10.60;99.90
6106;DHT22;3083;51.508;7.966;2024-02-28T13:37:04;10.60;99.90
6106;DHT22;3083;51.508;7.966;2024-02-28T13:39:31;10.60;99.90
6106;DHT22;3083;51.508;7.966;2024-02-28T13:41:58;10.60;99.90
6106;DHT22;3083;51.508;7.966;2024-02-28T13:44:25;10.60;99.90
6106;DHT22;3083;51.508;7.966;2024-02-28T13:46:53;10.60;99.90
6106;DHT22;3083;51.508;7.966;2024-02-28T13:49:20;10.60;99.90
6106;DHT22;3083;51.508;7.966;2024-02-28T13:51:47;10.70;99.90
6106;DHT22;3083;51.508;7.966;2024-02-28T13:54:16;10.70;99.90
6106;DHT22;3083;51.508;7.966;2024-02-28T13:56:43;10.70;99.90
6106;DHT22;3083;51.508;7.966;2024-02-28T13:59:10;10.70;99.90
6106;DHT22;3083;51.508;7.966;2024-02-28T14:01:37;10.70;99.90
6106;DHT22;3083;51.508;7.966;2024-02-28T14:04:04;10.80;99.90
6106;DHT22;3083;51.508;7.966;2024-02-28T14:06:31;10.80;99.90
6106;DHT22;3083;51.508;7.966;2024-02-28T14:08:57;10.90;99.90
6106;DHT22;3083;51.508;7.966;2024-02-28T14:11:26;10.90;99.90
6106;DHT22;3083;51.508;7.966;2024-02-28T14:13:53;10.90;99.90
6106;DHT22;3083;51.508;7.966;2024-02-28T14:16:20;10.90;99.90
6106;DHT22;3083;51.508;7.966;2024-02-28T14:18:47;10.80;99.90
6106;DHT22;3083;51.508;7.966;2024-02-28T14:21:14;10.60;99.90
6106;DHT22;3083;51.508;7.966;2024-02-28T14:23:41;10.60;99.90
6106;DHT22;3083;51.508;7.966;2024-02-28T14:26:08;10.60;99.90
6106;DHT22;3083;51.508;7.966;2024-02-28T14:28:36;10.50;99.90
6106;DHT22;3083;51.508;7.966;2024-02-28T14:31:04;10.40;99.90
6106;DHT22;3083;51.508;7.966;2024-02-28T14:33:31;10.30;99.90
6106;DHT22;3083;51.508;7.966;2024-02-28T14:35:58;10.30;99.90
6106;DHT22;3083;51.508;7.966;2024-02-28T14:38:26;10.20;99.90
6106;DHT22;3083;51.508;7.966;2024-02-28T14:40:52;10.30;99.90
6106;DHT22;3083;51.508;7.966;2024-02-28T14:43:19;10.20;99.90
6106;DHT22;3083;51.508;7.966;2024-02-28T14:45:50;10.20;99.90
6106;DHT22;3083;51.508;7.966;2024-02-28T14:48:16;10.20;99.90
6106;DHT22;3083;51.508;7.966;2024-02-28T14:50:43;10.20;99.90
6106;DHT22;3083;51.508;7.966;2024-02-28T14:53:10;10.20;99.90
6106;DHT22;3083;51.508;7.966;2024-02-28T14:55:37;10.20;99.90
6106;DHT22;3083;51.508;7.966;2024-02-28T14:58:04;10.20;99.90
6106;DHT22;3083;51.508;7.966;2024-02-28T15:00:31;10.20;99.90
6106;DHT22;3083;51.508;7.966;2024-02-28T15:03:00;10.10;99.90
6106;DHT22;3083;51.508;7.966;2024-02-28T15:05:27;10.00;99.90
6106;DHT22;3083;51.508;7.966;2024-02-28T15:07:53;10.00;99.90
6106;DHT22;3083;51.508;7.966;2024-02-28T15:10:21;10.00;99.90
6106;DHT22;3083;51.508;7.966;2024-02-28T15:12:48;10.00;99.90
6106;DHT22;3083;51.508;7.966;2024-02-28T15:15:15;9.90;99.90
6106;DHT22;3083;51.508;7.966;2024-02-28T15:17:42;9.90;99.90
6106;DHT22;3083;51.508;7.966;2024-02-28T15:20:10;9.80;99.90
6106;DHT22;3083;51.508;7.966;2024-02-28T15:22:37;9.80;99.90
6106;DHT22;3083;51.508;7.966;2024-02-28T15:25:05;9.80;99.90
6106;DHT22;3083;51.508;7.966;2024-02-28T15:27:32;9.80;99.90
6106;DHT22;3083;51.508;7.966;2024-02-28T15:29:59;9.70;99.90
6106;DHT22;3083;51.508;7.966;2024-02-28T15:32:26;9.70;99.90
6106;DHT22;3083;51.508;7.966;2024-02-28T15:34:53;9.60;99.90
6106;DHT22;3083;51.508;7.966;2024-02-28T15:37:21;9.60;99.90
6106;DHT22;3083;51.508;7.966;2024-02-28T15:39:48;9.50;99.90
6106;DHT22;3083;51.508;7.966;2024-02-28T15:42:15;9.40;99.90
6106;DHT22;3083;51.508;7.966;2024-02-28T15:44:43;9.40;99.90
6106;DHT22;3083;51.508;7.966;2024-02-28T15:47:10;9.30;99.90
6106;DHT22;3083;51.508;7.966;2024-02-28T15:49:37;9.20;99.90
6106;DHT22;3083;51.508;7.966;2024-02-28T15:52:04;9.20;99.90
6106;DHT22;3083;51.508;7.966;2024-02-28T15:54:33;9.10;99.90
6106;DHT22;3083;51.508;7.966;2024-02-28T15:56:59;9.10;99.90
6106;DHT22;3083;51.508;7.966;2024-02-28T15:59:26;9.10;99.90
6106;DHT22;3083;51.508;7.966;2024-02-28T16:01:53;9.00;99.90
6106;DHT22;3083;51.508;7.966;2024-02-28T16:04:20;9.00;99.90
6106;DHT22;3083;51.508;7.966;2024-02-28T16:06:47;8.90;99.90
6106;DHT22;3083;51.508;7.966;2024-02-28T16:09:14;8.90;99.90
6106;DHT22;3083;51.508;7.966;2024-02-28T16:11:44;8.70;99.90
6106;DHT22;3083;51.508;7.966;2024-02-28T16:14:11;8.70;99.90